Time;durP1;ratioP1;P1;durP2;ratioP2;P2;SDS_P1;SDS_P2;PMS_P1;PMS_P2;Temp;Humidity;BMP_temperature;BMP_pressure;BME280_temperature;BME280_humidity;BME280_pressure;Samples;Min_cycle;Max_cycle;Signal;HPM_P1;HPM_P2
2023/05/06 00:00:30;;;;;;;8.70;4.10;;;11.70;47.60;;;;;;5110110;28;20038;-60
2023/05/06 00:02:55;;;;;;;10.30;4.15;;;11.60;52.80;;;;;;5089124;27;20035;-60
2023/05/06 00:05:21;;;;;;;7.22;4.40;;;11.30;65.60;;;;;;5096350;28;20051;-60
2023/05/06 00:07:46;;;;;;;8.73;4.68;;;11.00;74.90;;;;;;5088856;28;20028;-59
2023/05/06 00:10:12;;;;;;;8.25;4.38;;;10.70;92.30;;;;;;5110117;28;20028;-60
2023/05/06 00:12:38;;;;;;;7.90;4.30;;;10.50;99.50;;;;;;5090160;28;20082;-60
2023/05/06 00:15:04;;;;;;;8.07;3.92;;;10.30;99.10;;;;;;5103980;28;20593;-59
2023/05/06 00:17:29;;;;;;;8.50;3.78;;;10.20;99.90;;;;;;5091513;28;20055;-59
2023/05/06 00:19:57;;;;;;;9.43;4.00;;;10.10;99.90;;;;;;5108868;28;20062;-57
2023/05/06 00:22:23;;;;;;;9.95;4.82;;;10.00;99.90;;;;;;5111410;28;20027;-57
2023/05/06 00:24:48;;;;;;;12.63;4.13;;;9.90;99.90;;;;;;5092535;28;20031;-58
2023/05/06 00:27:14;;;;;;;11.80;4.40;;;9.80;99.90;;;;;;5111688;28;20081;-59
2023/05/06 00:29:39;;;;;;;9.48;4.80;;;9.80;99.90;;;;;;5091502;28;20028;-58
2023/05/06 00:32:05;;;;;;;10.02;5.88;;;9.70;99.90;;;;;;5104614;28;20032;-58
2023/05/06 00:34:30;;;;;;;9.88;5.50;;;9.70;99.90;;;;;;5091854;28;20496;-58
2023/05/06 00:36:56;;;;;;;10.15;5.72;;;9.60;99.90;;;;;;5111378;28;20085;-60
2023/05/06 00:39:21;;;;;;;10.20;5.60;;;9.60;99.90;;;;;;5091448;28;20122;-58
2023/05/06 00:41:47;;;;;;;11.68;5.75;;;9.50;99.90;;;;;;5098734;28;20399;-58
2023/05/06 00:44:12;;;;;;;12.63;5.50;;;9.40;99.90;;;;;;5091147;28;20027;-57
2023/05/06 00:46:38;;;;;;;9.02;5.40;;;9.30;99.90;;;;;;5106129;28;20043;-56
2023/05/06 00:49:05;;;;;;;11.25;5.78;;;9.30;99.90;;;;;;5091112;28;20027;-57
2023/05/06 00:51:31;;;;;;;12.82;6.18;;;9.30;99.90;;;;;;5107496;28;20080;-58
2023/05/06 00:53:56;;;;;;;11.35;5.90;;;9.20;99.90;;;;;;5073585;28;20021;-58
2023/05/06 00:56:22;;;;;;;12.88;6.88;;;9.20;99.90;;;;;;5109807;28;20024;-57
2023/05/06 00:58:48;;;;;;;12.43;6.65;;;9.10;99.90;;;;;;5096291;28;20039;-57
2023/05/06 01:01:13;;;;;;;13.90;7.15;;;9.00;99.90;;;;;;5099695;28;20088;-58
2023/05/06 01:03:39;;;;;;;13.27;6.63;;;9.00;99.90;;;;;;5110148;28;20111;-57
2023/05/06 01:06:45;;;;;;;15.18;7.30;;;8.90;99.90;;;;;;5086070;28;20109;-58
2023/05/06 01:09:24;;;;;;;9.60;6.10;;;8.80;99.90;;;;;;5036164;28;20042;-58
2023/05/06 01:11:52;;;;;;;10.23;5.82;;;8.70;99.90;;;;;;5094198;28;20027;-58
2023/05/06 01:14:44;;;;;;;12.30;5.97;;;8.80;99.90;;;;;;5098336;28;20031;-56
2023/05/06 01:17:11;;;;;;;13.00;6.43;;;8.70;99.90;;;;;;5070227;28;20036;-54
2023/05/06 01:19:40;;;;;;;11.38;6.38;;;8.60;99.90;;;;;;5092782;28;20043;-54
2023/05/06 01:22:06;;;;;;;13.65;6.72;;;8.50;99.90;;;;;;5089509;28;20056;-51
2023/05/06 01:24:36;;;;;;;15.07;7.13;;;8.30;99.90;;;;;;5093215;28;20052;-55
2023/05/06 01:27:02;;;;;;;10.90;6.55;;;8.30;99.90;;;;;;5067122;28;20115;-52
2023/05/06 01:29:27;;;;;;;11.25;6.43;;;8.20;99.90;;;;;;5087908;28;20732;-56
2023/05/06 01:31:58;;;;;;;13.43;7.18;;;8.20;99.90;;;;;;5109697;28;20671;-55
2023/05/06 01:34:48;;;;;;;12.00;6.65;;;8.10;99.90;;;;;;5088030;28;20024;-55
2023/05/06 01:37:33;;;;;;;10.75;6.47;;;8.10;99.90;;;;;;5069504;28;20090;-54
2023/05/06 01:40:01;;;;;;;15.88;7.15;;;8.00;99.90;;;;;;5090005;28;20030;-54
2023/05/06 01:42:28;;;;;;;12.70;7.13;;;8.00;99.90;;;;;;5107733;28;20126;-53
2023/05/06 01:44:55;;;;;;;11.85;7.60;;;7.90;99.90;;;;;;5089760;28;20061;-51
2023/05/06 01:47:22;;;;;;;16.85;7.97;;;7.80;99.90;;;;;;5107693;28;20488;-56
2023/05/06 01:49:47;;;;;;;17.67;8.18;;;7.80;99.90;;;;;;5089886;28;20048;-55
2023/05/06 01:52:15;;;;;;;16.02;7.68;;;7.70;99.90;;;;;;5107348;28;20090;-54
2023/05/06 01:54:40;;;;;;;18.58;8.07;;;7.60;99.90;;;;;;5109767;28;20031;-55
2023/05/06 01:57:06;;;;;;;22.52;8.35;;;7.60;99.90;;;;;;5094558;28;20291;-55
2023/05/06 01:59:31;;;;;;;13.80;8.32;;;7.60;99.90;;;;;;5109848;28;20556;-53
2023/05/06 02:01:57;;;;;;;11.15;6.93;;;7.60;99.90;;;;;;5092626;28;20027;-50
2023/05/06 02:04:22;;;;;;;12.25;7.78;;;7.60;99.90;;;;;;5109758;28;20491;-50
2023/05/06 02:06:47;;;;;;;13.95;8.00;;;7.50;99.90;;;;;;5085255;28;20079;-54
2023/05/06 02:09:13;;;;;;;19.25;9.40;;;7.40;99.90;;;;;;5109804;28;20076;-53
2023/05/06 02:11:38;;;;;;;13.88;8.05;;;7.40;99.90;;;;;;5090338;28;20102;-51
2023/05/06 02:14:04;;;;;;;17.70;8.95;;;7.30;99.90;;;;;;5109318;28;20023;-55
2023/05/06 02:16:29;;;;;;;12.98;8.10;;;7.30;99.90;;;;;;5088812;28;20162;-52
2023/05/06 02:18:55;;;;;;;12.10;7.47;;;7.30;99.90;;;;;;5109545;28;20020;-51
2023/05/06 02:21:22;;;;;;;13.85;8.35;;;7.30;99.90;;;;;;5090080;28;20094;-58
2023/05/06 02:23:47;;;;;;;13.85;8.38;;;7.20;99.90;;;;;;5068844;28;20447;-63
2023/05/06 02:26:13;;;;;;;15.23;7.78;;;7.20;99.90;;;;;;5107658;28;20042;-63
2023/05/06 02:28:38;;;;;;;18.45;9.18;;;7.20;99.90;;;;;;5087947;28;20090;-63
2023/05/06 02:31:04;;;;;;;17.50;8.65;;;7.10;99.90;;;;;;5108406;28;20140;-63
2023/05/06 02:33:30;;;;;;;17.35;8.68;;;7.10;99.90;;;;;;5087061;28;20024;-63
2023/05/06 02:35:55;;;;;;;14.63;7.95;;;7.10;99.90;;;;;;5108709;28;20059;-63
2023/05/06 02:38:21;;;;;;;18.02;7.43;;;7.10;99.90;;;;;;5087444;28;20039;-63
2023/05/06 02:40:47;;;;;;;11.63;6.78;;;7.00;99.90;;;;;;5108648;28;20034;-63
2023/05/06 02:43:12;;;;;;;16.30;8.25;;;7.00;99.90;;;;;;5087728;28;20056;-64
2023/05/06 02:45:38;;;;;;;16.08;8.15;;;7.00;99.90;;;;;;5108438;28;20137;-64
2023/05/06 02:48:03;;;;;;;17.38;8.43;;;6.90;99.90;;;;;;5087669;28;20034;-63
2023/05/06 02:50:29;;;;;;;17.33;8.02;;;6.90;99.90;;;;;;5106959;28;20032;-63
2023/05/06 02:52:54;;;;;;;16.38;8.68;;;6.90;99.90;;;;;;5087701;28;20058;-63
2023/05/06 02:55:21;;;;;;;16.55;9.45;;;6.90;99.90;;;;;;5108285;28;20064;-63
2023/05/06 02:57:46;;;;;;;16.27;8.68;;;6.90;99.90;;;;;;5087367;28;20024;-62
2023/05/06 03:00:12;;;;;;;15.57;8.23;;;6.90;99.90;;;;;;5108454;28;20036;-63
2023/05/06 03:02:38;;;;;;;19.85;8.55;;;6.80;99.90;;;;;;5087052;28;20383;-62
2023/05/06 03:05:04;;;;;;;12.75;8.18;;;6.80;99.90;;;;;;5099469;28;20023;-62
2023/05/06 03:07:30;;;;;;;12.90;8.07;;;6.80;99.90;;;;;;5086885;28;20120;-63
2023/05/06 03:09:56;;;;;;;14.15;8.05;;;6.80;99.90;;;;;;5108407;28;20049;-63
2023/05/06 03:12:21;;;;;;;15.77;9.10;;;6.80;99.90;;;;;;5087551;28;20028;-63
2023/05/06 03:14:46;;;;;;;15.90;8.05;;;6.90;99.90;;;;;;5107676;28;20442;-62
2023/05/06 03:17:12;;;;;;;17.63;9.27;;;6.80;99.90;;;;;;5087297;28;20032;-62
2023/05/06 03:19:37;;;;;;;16.15;8.43;;;6.80;99.90;;;;;;5108494;28;20028;-62
2023/05/06 03:22:03;;;;;;;16.88;7.55;;;6.80;99.90;;;;;;5087373;28;20414;-62
2023/05/06 03:24:28;;;;;;;16.67;9.50;;;6.80;99.90;;;;;;5108227;28;20027;-62
2023/05/06 03:26:54;;;;;;;19.27;9.50;;;6.70;99.90;;;;;;5087132;28;20040;-62
2023/05/06 03:29:19;;;;;;;16.20;8.95;;;6.70;99.90;;;;;;5091291;28;20081;-62
2023/05/06 03:31:49;;;;;;;16.58;9.68;;;6.70;99.90;;;;;;5108343;28;20032;-62
2023/05/06 03:34:14;;;;;;;14.13;8.73;;;6.70;99.90;;;;;;5086535;27;20557;-61
2023/05/06 03:36:40;;;;;;;19.20;8.48;;;6.70;99.90;;;;;;5108202;28;20031;-60
2023/05/06 03:39:05;;;;;;;17.33;9.00;;;6.70;99.90;;;;;;5087001;28;20450;-60
2023/05/06 03:41:31;;;;;;;17.25;9.30;;;6.60;99.90;;;;;;5106100;28;20028;-59
2023/05/06 03:43:56;;;;;;;15.85;9.68;;;6.70;99.90;;;;;;5108633;28;20019;-59
2023/05/06 03:46:22;;;;;;;16.40;9.15;;;6.60;99.90;;;;;;5089370;28;20496;-57
2023/05/06 03:48:47;;;;;;;18.67;10.18;;;6.60;99.90;;;;;;5092268;28;20028;-58
2023/05/06 03:51:13;;;;;;;21.35;10.02;;;6.60;99.90;;;;;;5111541;28;20131;-58
2023/05/06 03:53:39;;;;;;;16.00;9.95;;;6.50;99.90;;;;;;5090731;28;20030;-58
2023/05/06 03:56:05;;;;;;;18.75;10.13;;;6.50;99.90;;;;;;5111445;28;20050;-58
2023/05/06 03:58:30;;;;;;;20.35;10.02;;;6.50;99.90;;;;;;5090617;28;20039;-59
2023/05/06 04:00:56;;;;;;;21.65;11.68;;;6.50;99.90;;;;;;5111465;28;20056;-59
2023/05/06 04:03:21;;;;;;;16.88;9.35;;;6.50;99.90;;;;;;5090373;28;20035;-58
2023/05/06 04:05:49;;;;;;;16.52;9.48;;;6.50;99.90;;;;;;5098284;28;20024;-58
2023/05/06 04:08:16;;;;;;;17.92;10.52;;;6.50;99.90;;;;;;5094329;28;20028;-56
2023/05/06 04:10:41;;;;;;;20.58;10.57;;;6.50;99.90;;;;;;5111484;28;20498;-54
2023/05/06 04:13:07;;;;;;;23.63;10.43;;;6.50;99.90;;;;;;5090587;28;20042;-58
2023/05/06 04:15:34;;;;;;;18.13;10.55;;;6.50;99.90;;;;;;5110868;28;20039;-59
2023/05/06 04:17:59;;;;;;;17.38;10.77;;;6.50;99.90;;;;;;5089924;28;20067;-57
2023/05/06 04:20:25;;;;;;;20.27;12.65;;;6.40;99.90;;;;;;5111171;28;20100;-58
2023/05/06 04:22:51;;;;;;;20.42;10.43;;;6.50;99.90;;;;;;5099559;28;20081;-58
2023/05/06 04:25:18;;;;;;;23.38;11.07;;;6.50;99.90;;;;;;5099281;28;20034;-58
2023/05/06 04:27:44;;;;;;;20.80;11.18;;;6.50;99.90;;;;;;5091508;28;20032;-55
2023/05/06 04:30:10;;;;;;;21.30;11.20;;;6.50;99.90;;;;;;5106849;28;20349;-55
2023/05/06 04:32:35;;;;;;;21.20;10.73;;;6.50;99.90;;;;;;5095294;28;20039;-58
2023/05/06 04:35:01;;;;;;;25.60;11.65;;;6.50;99.90;;;;;;5111407;28;20023;-58
2023/05/06 04:37:27;;;;;;;18.70;10.80;;;6.50;99.90;;;;;;5089829;28;20031;-58
2023/05/06 04:39:53;;;;;;;22.20;11.60;;;6.50;99.90;;;;;;5104815;28;20024;-58
2023/05/06 04:42:18;;;;;;;18.10;10.32;;;6.50;99.90;;;;;;5084238;28;20071;-58
2023/05/06 04:44:44;;;;;;;17.83;10.73;;;6.50;99.90;;;;;;5070775;28;20481;-57
2023/05/06 04:47:10;;;;;;;18.65;10.82;;;6.50;99.90;;;;;;5108242;28;20410;-57
2023/05/06 04:49:35;;;;;;;20.92;10.75;;;6.60;99.90;;;;;;5111179;28;20106;-58
2023/05/06 04:52:01;;;;;;;21.73;11.45;;;6.60;99.90;;;;;;5077064;28;20036;-58
2023/05/06 04:54:26;;;;;;;20.42;11.00;;;6.60;99.90;;;;;;5090247;28;20040;-58
2023/05/06 04:56:52;;;;;;;20.17;10.82;;;6.60;99.90;;;;;;5079210;28;20062;-58
2023/05/06 04:59:18;;;;;;;18.80;10.48;;;6.60;99.90;;;;;;5106610;28;20035;-58
2023/05/06 05:01:43;;;;;;;16.85;10.05;;;6.60;99.90;;;;;;5096808;28;20486;-58
2023/05/06 05:04:09;;;;;;;27.08;11.75;;;6.60;99.90;;;;;;5073443;28;20039;-58
2023/05/06 05:06:34;;;;;;;18.48;10.80;;;6.70;99.90;;;;;;5104770;28;20034;-59
2023/05/06 05:08:59;;;;;;;19.35;10.85;;;6.70;99.90;;;;;;5089385;28;20028;-58
2023/05/06 05:11:25;;;;;;;20.83;10.82;;;6.70;99.90;;;;;;5080626;28;20042;-58
2023/05/06 05:13:51;;;;;;;27.65;12.02;;;6.70;99.90;;;;;;5072162;28;20028;-57
2023/05/06 05:16:16;;;;;;;18.90;10.75;;;6.80;99.90;;;;;;5077423;28;20078;-49
2023/05/06 05:18:42;;;;;;;20.33;10.55;;;6.80;99.90;;;;;;5094597;28;20032;-51
2023/05/06 05:21:07;;;;;;;16.63;9.85;;;6.80;99.90;;;;;;5082041;28;20485;-47
2023/05/06 05:23:33;;;;;;;19.58;11.75;;;6.80;99.90;;;;;;5104013;28;20480;-51
2023/05/06 05:26:02;;;;;;;25.10;10.43;;;6.90;99.90;;;;;;5092529;28;20074;-49
2023/05/06 05:28:28;;;;;;;20.35;10.95;;;6.90;99.90;;;;;;5077905;28;20063;-53
2023/05/06 05:30:54;;;;;;;18.75;9.77;;;6.90;99.90;;;;;;5085434;28;20029;-48
2023/05/06 05:33:19;;;;;;;16.35;10.65;;;7.00;99.90;;;;;;5067736;28;20036;-51
2023/05/06 05:35:45;;;;;;;19.13;10.70;;;7.00;99.90;;;;;;5090367;28;20039;-50
2023/05/06 05:38:12;;;;;;;16.48;10.35;;;7.00;99.90;;;;;;5095299;28;20063;-52
2023/05/06 05:40:47;;;;;;;16.83;11.05;;;7.00;99.90;;;;;;5090283;28;20038;-50
2023/05/06 05:43:16;;;;;;;20.95;10.35;;;7.00;99.90;;;;;;5106475;28;20405;-50
2023/05/06 05:45:42;;;;;;;18.08;11.10;;;7.00;99.90;;;;;;5086644;28;20477;-51
2023/05/06 05:48:07;;;;;;;15.93;10.20;;;7.00;99.90;;;;;;5089296;28;20404;-51
2023/05/06 05:50:33;;;;;;;24.60;11.38;;;7.00;99.90;;;;;;5094080;28;20099;-54
2023/05/06 05:52:58;;;;;;;20.08;10.43;;;7.00;99.90;;;;;;5107781;28;20027;-51
2023/05/06 05:55:23;;;;;;;19.75;9.95;;;7.00;99.90;;;;;;5084175;28;20024;-50
2023/05/06 05:57:49;;;;;;;20.10;10.77;;;6.90;99.90;;;;;;5080760;28;20035;-50
2023/05/06 06:00:15;;;;;;;21.42;11.82;;;6.90;99.90;;;;;;5105640;28;20109;-50
2023/05/06 06:02:40;;;;;;;16.02;10.18;;;6.90;99.90;;;;;;5087846;27;20363;-51
2023/05/06 06:05:06;;;;;;;20.60;11.18;;;6.90;99.90;;;;;;5078679;28;20034;-50
2023/05/06 06:07:32;;;;;;;19.70;9.63;;;6.90;99.90;;;;;;5070960;28;20028;-50
2023/05/06 06:09:58;;;;;;;18.23;10.15;;;7.00;99.90;;;;;;5090321;28;20028;-52
2023/05/06 06:12:23;;;;;;;20.77;11.98;;;7.00;99.90;;;;;;5085618;28;20039;-47
2023/05/06 06:14:49;;;;;;;21.38;12.50;;;7.00;99.90;;;;;;5092053;28;20039;-49
2023/05/06 06:17:15;;;;;;;17.63;11.45;;;6.90;99.90;;;;;;5076489;28;20036;-48
2023/05/06 06:19:41;;;;;;;19.45;11.38;;;7.00;99.90;;;;;;5103011;28;20035;-52
2023/05/06 06:22:06;;;;;;;20.63;11.35;;;7.00;99.90;;;;;;5087390;28;20031;-50
2023/05/06 06:24:35;;;;;;;21.48;11.65;;;7.00;99.90;;;;;;5104398;28;20050;-46
2023/05/06 06:27:00;;;;;;;19.25;12.55;;;7.10;99.90;;;;;;5086609;28;20111;-51
2023/05/06 06:29:27;;;;;;;23.23;11.63;;;7.10;99.90;;;;;;5104661;28;20048;-49
2023/05/06 06:31:54;;;;;;;18.80;11.40;;;7.10;99.90;;;;;;5087383;28;20032;-46
2023/05/06 06:34:20;;;;;;;20.98;11.98;;;7.10;99.90;;;;;;5093956;28;20051;-48
2023/05/06 06:36:46;;;;;;;20.80;12.20;;;7.10;99.90;;;;;;5087050;28;20148;-51
2023/05/06 06:39:12;;;;;;;20.05;11.57;;;7.10;99.90;;;;;;5104086;28;20064;-48
2023/05/06 06:41:37;;;;;;;21.40;11.63;;;7.20;99.90;;;;;;5100067;28;20024;-47
2023/05/06 06:44:03;;;;;;;21.50;13.93;;;7.20;99.90;;;;;;5090702;28;20481;-53
2023/05/06 06:46:29;;;;;;;22.15;12.05;;;7.20;99.90;;;;;;5105120;28;20031;-55
2023/05/06 06:48:54;;;;;;;23.05;12.32;;;7.30;99.90;;;;;;5092581;28;20028;-50
2023/05/06 06:51:20;;;;;;;24.70;14.13;;;7.20;99.90;;;;;;5085325;28;20036;-50
2023/05/06 06:53:47;;;;;;;22.17;12.38;;;7.30;99.90;;;;;;5092060;28;20035;-51
2023/05/06 06:56:14;;;;;;;22.63;11.88;;;7.30;99.90;;;;;;5095009;28;20025;-52
2023/05/06 06:58:40;;;;;;;21.20;13.77;;;7.30;99.90;;;;;;5103518;28;20499;-52
2023/05/06 07:01:05;;;;;;;17.83;12.70;;;7.40;99.90;;;;;;5105289;28;20046;-51
2023/05/06 07:03:31;;;;;;;22.15;13.80;;;7.40;99.90;;;;;;5091117;28;20231;-52
2023/05/06 07:05:56;;;;;;;18.80;11.95;;;7.50;99.90;;;;;;5090461;28;20437;-52
2023/05/06 07:08:22;;;;;;;22.05;12.98;;;7.50;99.90;;;;;;5106736;28;20032;-49
2023/05/06 07:10:47;;;;;;;22.23;13.70;;;7.50;99.90;;;;;;5109597;28;20023;-50
2023/05/06 07:13:13;;;;;;;23.20;13.43;;;7.50;99.90;;;;;;5088778;28;20082;-54
2023/05/06 07:15:39;;;;;;;21.85;14.25;;;7.50;99.90;;;;;;5109378;28;20031;-54
2023/05/06 07:18:05;;;;;;;25.10;14.07;;;7.40;99.90;;;;;;5085679;28;20028;-51
2023/05/06 07:20:30;;;;;;;27.17;14.90;;;7.50;99.90;;;;;;5097478;28;20016;-51
2023/05/06 07:22:56;;;;;;;22.25;13.80;;;7.50;99.90;;;;;;5111099;28;20468;-49
2023/05/06 07:25:21;;;;;;;21.67;14.50;;;7.50;99.90;;;;;;5098926;28;20047;-53
2023/05/06 07:27:47;;;;;;;22.60;14.13;;;7.60;99.90;;;;;;5111348;28;20035;-53
2023/05/06 07:30:13;;;;;;;28.38;15.68;;;7.60;99.90;;;;;;5102556;28;20484;-52
2023/05/06 07:32:40;;;;;;;22.15;15.00;;;7.60;99.90;;;;;;5091408;28;20139;-50
2023/05/06 07:35:05;;;;;;;22.52;14.23;;;7.50;99.90;;;;;;5111174;28;20030;-53
2023/05/06 07:37:31;;;;;;;24.02;16.48;;;7.60;99.90;;;;;;5090784;28;20035;-49
2023/05/06 07:39:57;;;;;;;25.67;15.35;;;7.60;99.90;;;;;;5111890;28;20028;-53
2023/05/06 07:42:22;;;;;;;21.42;14.63;;;7.60;99.90;;;;;;5091203;28;20069;-54
2023/05/06 07:44:48;;;;;;;27.38;15.85;;;7.70;99.90;;;;;;5112004;28;20498;-52
2023/05/06 07:47:26;;;;;;;24.15;15.45;;;7.70;99.90;;;;;;5091033;28;20099;-53
2023/05/06 07:49:51;;;;;;;30.05;15.90;;;7.80;99.90;;;;;;5068891;28;20394;-55
2023/05/06 07:52:17;;;;;;;23.23;14.90;;;7.80;99.90;;;;;;5111529;28;20120;-52
2023/05/06 07:54:42;;;;;;;27.52;15.32;;;7.90;99.90;;;;;;5091085;28;20032;-53
2023/05/06 07:57:08;;;;;;;23.13;15.00;;;7.90;99.90;;;;;;5111697;28;20383;-55
2023/05/06 07:59:33;;;;;;;20.90;14.20;;;7.90;99.90;;;;;;5090518;28;20026;-52
2023/05/06 08:01:59;;;;;;;24.35;16.60;;;8.00;99.90;;;;;;5110633;28;20118;-52
2023/05/06 08:04:24;;;;;;;24.23;16.20;;;8.10;99.90;;;;;;5096793;28;20028;-55
2023/05/06 08:06:50;;;;;;;24.00;16.20;;;8.10;99.90;;;;;;5109426;28;20031;-57
2023/05/06 08:09:15;;;;;;;24.00;18.08;;;8.20;99.90;;;;;;5095433;28;20032;-55
2023/05/06 08:11:41;;;;;;;28.40;17.50;;;8.30;99.90;;;;;;5112606;28;20136;-54
2023/05/06 08:14:06;;;;;;;21.77;15.35;;;8.30;99.90;;;;;;5093638;28;20392;-56
2023/05/06 08:16:31;;;;;;;29.45;19.55;;;8.40;99.90;;;;;;5112181;28;20022;-52
2023/05/06 08:18:57;;;;;;;21.13;16.73;;;8.40;99.90;;;;;;5092499;28;20455;-56
2023/05/06 08:21:22;;;;;;;23.77;16.73;;;8.30;99.90;;;;;;5112303;28;20475;-55
2023/05/06 08:23:48;;;;;;;20.70;14.45;;;8.40;99.90;;;;;;5091185;28;20028;-55
2023/05/06 08:26:13;;;;;;;18.73;12.32;;;8.30;99.90;;;;;;5109941;28;20035;-51
2023/05/06 08:28:39;;;;;;;17.60;11.85;;;8.20;99.90;;;;;;5098790;28;20556;-65
2023/05/06 08:31:04;;;;;;;15.52;10.50;;;8.20;99.90;;;;;;5091775;28;20391;-65
2023/05/06 08:33:30;;;;;;;15.05;10.20;;;8.20;99.90;;;;;;5108818;28;20062;-65
2023/05/06 08:35:57;;;;;;;16.08;11.25;;;8.20;99.90;;;;;;5111753;28;20023;-65
2023/05/06 08:38:23;;;;;;;14.18;10.10;;;8.20;99.90;;;;;;5090056;28;20201;-65
2023/05/06 08:40:51;;;;;;;16.58;11.27;;;8.20;99.90;;;;;;5091502;28;20296;-65
2023/05/06 08:43:19;;;;;;;14.48;10.73;;;8.30;99.90;;;;;;5097725;28;20101;-65
2023/05/06 08:45:45;;;;;;;14.18;9.75;;;8.30;99.90;;;;;;5111294;28;20059;-64
2023/05/06 08:48:11;;;;;;;13.43;9.55;;;8.30;99.90;;;;;;5094479;28;20510;-64
2023/05/06 08:50:41;;;;;;;17.17;10.48;;;8.40;99.90;;;;;;5111837;28;20024;-65
2023/05/06 08:53:13;;;;;;;14.43;9.40;;;8.30;99.90;;;;;;5093175;28;20088;-64
2023/05/06 08:55:41;;;;;;;12.00;9.10;;;8.40;99.90;;;;;;5111497;27;20559;-64
2023/05/06 08:58:07;;;;;;;12.65;8.73;;;8.40;99.90;;;;;;5098802;28;20035;-64
2023/05/06 09:00:33;;;;;;;12.70;9.93;;;8.50;99.90;;;;;;5091410;28;20081;-64
2023/05/06 09:02:58;;;;;;;13.60;9.95;;;8.50;99.90;;;;;;5108766;28;20020;-63
2023/05/06 09:05:24;;;;;;;13.15;9.05;;;8.50;99.90;;;;;;5095415;28;20380;-63
2023/05/06 09:07:49;;;;;;;13.02;8.70;;;8.50;99.90;;;;;;5096698;28;20023;-63
2023/05/06 09:10:16;;;;;;;10.50;8.85;;;8.60;99.90;;;;;;5095470;28;20024;-64
2023/05/06 09:12:42;;;;;;;11.65;9.20;;;8.50;99.90;;;;;;5108303;28;20519;-62
2023/05/06 09:15:09;;;;;;;12.43;8.82;;;8.60;99.90;;;;;;5111079;28;20098;-59
2023/05/06 09:17:35;;;;;;;11.48;9.07;;;8.60;99.90;;;;;;5088958;28;20446;-58
2023/05/06 09:20:00;;;;;;;11.85;8.68;;;8.60;99.90;;;;;;5110241;28;20360;-59
2023/05/06 09:22:28;;;;;;;11.88;9.07;;;8.60;99.90;;;;;;5089268;28;20243;-58
2023/05/06 09:24:55;;;;;;;14.30;8.63;;;8.50;99.90;;;;;;5107570;28;20069;-55
2023/05/06 09:27:26;;;;;;;12.02;8.23;;;8.50;99.90;;;;;;5088785;28;20090;-59
2023/05/06 09:30:00;;;;;;;9.38;7.80;;;8.50;99.90;;;;;;5108833;28;20031;-59
2023/05/06 09:32:26;;;;;;;10.73;7.97;;;8.70;99.90;;;;;;5087521;28;20483;-59
2023/05/06 09:34:53;;;;;;;9.95;7.70;;;8.70;99.90;;;;;;5110299;28;20031;-58
2023/05/06 09:37:19;;;;;;;8.77;7.32;;;8.80;99.90;;;;;;5088800;28;20040;-59
2023/05/06 09:39:45;;;;;;;10.27;6.75;;;8.80;99.90;;;;;;5110168;28;20028;-58
2023/05/06 09:42:11;;;;;;;9.75;7.05;;;8.80;99.90;;;;;;5088918;28;20063;-56
2023/05/06 09:44:37;;;;;;;9.25;6.95;;;8.80;99.90;;;;;;5107491;28;20032;-56
2023/05/06 09:47:03;;;;;;;8.82;6.20;;;8.70;99.90;;;;;;5089042;28;20032;-56
2023/05/06 09:49:28;;;;;;;8.23;5.80;;;8.60;99.90;;;;;;5109802;28;20035;-56
2023/05/06 09:51:56;;;;;;;8.05;6.90;;;8.70;99.90;;;;;;5099545;28;20123;-58
2023/05/06 09:54:23;;;;;;;9.10;6.00;;;8.70;99.90;;;;;;5090202;28;20028;-57
2023/05/06 09:56:51;;;;;;;8.05;5.97;;;8.60;99.90;;;;;;5107723;28;20038;-58
2023/05/06 09:59:17;;;;;;;7.05;5.50;;;8.70;99.90;;;;;;5089969;28;20023;-58
2023/05/06 10:01:43;;;;;;;7.90;6.32;;;8.80;99.90;;;;;;5107588;28;20550;-57
2023/05/06 10:04:11;;;;;;;9.80;6.63;;;8.80;99.90;;;;;;5090231;28;20044;-57
2023/05/06 10:06:39;;;;;;;10.75;6.60;;;8.80;99.90;;;;;;5101606;28;20310;-58
2023/05/06 10:09:06;;;;;;;7.47;5.35;;;8.80;99.90;;;;;;5089910;28;20491;-57
2023/05/06 10:11:32;;;;;;;5.40;4.78;;;8.70;99.90;;;;;;5107626;28;20126;-54
2023/05/06 10:14:00;;;;;;;6.50;5.07;;;8.70;99.90;;;;;;5090115;28;20110;-52
2023/05/06 10:16:26;;;;;;;6.15;4.72;;;8.70;99.90;;;;;;5107710;28;20081;-57
2023/05/06 10:18:54;;;;;;;6.60;5.45;;;8.60;99.90;;;;;;5109893;28;20089;-56
2023/05/06 10:21:23;;;;;;;5.72;5.03;;;8.60;99.90;;;;;;5093757;28;20039;-56
2023/05/06 10:24:06;;;;;;;6.13;4.55;;;8.50;99.90;;;;;;5108442;28;20024;-56
2023/05/06 10:26:37;;;;;;;5.80;4.75;;;8.40;99.90;;;;;;5082515;28;20048;-56
2023/05/06 10:29:07;;;;;;;7.38;4.78;;;8.30;99.90;;;;;;5109618;28;20051;-57
2023/05/06 10:31:34;;;;;;;6.20;5.15;;;8.30;99.90;;;;;;5083032;28;20035;-55
2023/05/06 10:34:03;;;;;;;7.03;4.65;;;8.30;99.90;;;;;;5089596;28;20032;-55
2023/05/06 10:36:32;;;;;;;5.60;4.90;;;8.30;99.90;;;;;;5107530;28;20082;-55
2023/05/06 10:39:00;;;;;;;6.03;4.63;;;8.20;99.90;;;;;;5109740;28;20023;-56
2023/05/06 10:41:27;;;;;;;7.10;5.30;;;8.20;99.90;;;;;;5094395;28;20104;-56
2023/05/06 10:43:56;;;;;;;4.88;4.38;;;8.30;99.90;;;;;;5109505;28;20459;-54
2023/05/06 10:46:29;;;;;;;8.85;5.68;;;8.30;99.90;;;;;;5093531;28;20035;-54
2023/05/06 10:49:10;;;;;;;7.30;5.68;;;8.30;99.90;;;;;;5109557;28;20057;-57
2023/05/06 10:51:42;;;;;;;6.93;5.43;;;8.30;99.90;;;;;;5083500;28;20023;-56
2023/05/06 10:54:21;;;;;;;6.93;5.75;;;8.30;99.90;;;;;;5068974;28;20085;-56
2023/05/06 10:56:47;;;;;;;6.85;5.78;;;8.30;99.90;;;;;;5090813;28;20501;-52
2023/05/06 10:59:13;;;;;;;8.25;6.90;;;8.20;99.90;;;;;;5093652;28;20507;-53
2023/05/06 11:01:42;;;;;;;10.02;5.60;;;8.30;99.90;;;;;;5111017;28;20110;-53
2023/05/06 11:04:10;;;;;;;6.25;5.63;;;8.20;99.90;;;;;;5093089;28;20133;-54
2023/05/06 11:06:45;;;;;;;9.05;6.13;;;8.10;99.90;;;;;;5105290;28;20023;-56
2023/05/06 11:09:22;;;;;;;8.68;6.30;;;8.00;99.90;;;;;;5093370;28;20106;-54
2023/05/06 11:11:56;;;;;;;8.23;6.60;;;8.10;99.90;;;;;;5090786;28;20475;-54
2023/05/06 11:14:27;;;;;;;8.68;5.68;;;8.00;99.90;;;;;;5072773;28;20518;-53
2023/05/06 11:16:56;;;;;;;7.00;5.65;;;8.00;99.90;;;;;;5092110;28;20198;-53
2023/05/06 11:19:26;;;;;;;9.60;6.10;;;8.00;99.90;;;;;;5093050;27;20059;-56
2023/05/06 11:21:56;;;;;;;8.63;5.80;;;8.10;99.90;;;;;;5090582;28;20031;-55
2023/05/06 11:24:29;;;;;;;8.02;5.60;;;8.00;99.90;;;;;;5092839;28;20057;-54
2023/05/06 11:26:59;;;;;;;8.25;5.95;;;8.00;99.90;;;;;;5092573;28;20392;-55
2023/05/06 11:29:25;;;;;;;8.02;5.88;;;8.00;99.90;;;;;;5093196;28;20031;-54
2023/05/06 11:31:52;;;;;;;7.50;5.63;;;8.10;99.90;;;;;;5110338;28;20038;-55
2023/05/06 11:34:26;;;;;;;7.75;6.50;;;8.20;99.90;;;;;;5092813;28;20240;-55
2023/05/06 11:36:59;;;;;;;8.98;5.43;;;8.20;99.90;;;;;;5091472;28;20028;-54
2023/05/06 11:39:29;;;;;;;6.78;5.03;;;8.20;99.90;;;;;;5072439;28;20041;-56
2023/05/06 11:41:57;;;;;;;6.18;4.55;;;8.20;99.90;;;;;;5110668;28;20043;-56
2023/05/06 11:44:27;;;;;;;6.00;4.50;;;8.20;99.90;;;;;;5092674;28;20111;-54
2023/05/06 11:46:59;;;;;;;5.55;4.10;;;8.20;99.90;;;;;;5091586;28;20027;-52
2023/05/06 11:49:26;;;;;;;6.70;4.68;;;8.20;99.90;;;;;;5072129;28;20029;-54
2023/05/06 11:51:52;;;;;;;6.68;4.97;;;8.30;99.90;;;;;;5109611;28;20019;-56
2023/05/06 11:54:21;;;;;;;6.38;4.55;;;8.20;99.90;;;;;;5092816;28;20024;-56
2023/05/06 11:56:49;;;;;;;5.53;4.53;;;8.30;99.90;;;;;;5110102;28;20031;-54
2023/05/06 11:59:15;;;;;;;6.68;4.72;;;8.30;99.90;;;;;;5092558;28;20031;-54
2023/05/06 12:01:42;;;;;;;5.43;4.60;;;8.30;99.90;;;;;;5109966;28;20028;-56
2023/05/06 12:04:07;;;;;;;6.38;5.03;;;8.30;99.90;;;;;;5092407;28;20383;-56
2023/05/06 12:06:36;;;;;;;6.82;4.40;;;8.20;99.90;;;;;;5102565;28;20027;-52
2023/05/06 12:09:08;;;;;;;6.00;4.32;;;8.20;99.90;;;;;;5091951;28;20043;-56
2023/05/06 12:11:34;;;;;;;5.38;4.32;;;8.20;99.90;;;;;;5110058;28;20499;-56
2023/05/06 12:14:03;;;;;;;4.80;3.78;;;8.30;99.90;;;;;;5092487;27;20025;-56
2023/05/06 12:16:29;;;;;;;4.53;3.95;;;8.40;99.90;;;;;;5110387;28;20376;-56
2023/05/06 12:18:55;;;;;;;5.25;4.20;;;8.50;99.90;;;;;;5092429;28;20160;-54
2023/05/06 12:21:22;;;;;;;5.60;4.13;;;8.60;99.90;;;;;;5100603;28;20036;-55
2023/05/06 12:23:52;;;;;;;5.78;3.97;;;8.60;99.90;;;;;;5111683;28;20073;-54
2023/05/06 12:26:18;;;;;;;5.38;3.60;;;8.40;99.90;;;;;;5090251;28;20036;-55
2023/05/06 12:28:44;;;;;;;5.55;3.47;;;8.30;99.90;;;;;;5111392;28;20036;-51
2023/05/06 12:31:23;;;;;;;3.70;3.35;;;8.30;99.90;;;;;;5090374;28;20028;-52
2023/05/06 12:33:49;;;;;;;3.85;2.80;;;8.30;99.90;;;;;;5111404;28;20035;-56
2023/05/06 12:36:15;;;;;;;6.68;3.67;;;8.40;99.90;;;;;;5090241;28;20056;-53
2023/05/06 12:38:55;;;;;;;5.38;3.53;;;8.50;99.90;;;;;;5111186;28;20074;-56
2023/05/06 12:41:22;;;;;;;3.72;3.33;;;8.40;99.90;;;;;;5097578;28;20031;-53
2023/05/06 12:43:48;;;;;;;6.90;3.90;;;8.40;99.90;;;;;;5109961;28;20038;-55